Time;durP1;ratioP1;P1;durP2;ratioP2;P2;SDS_P1;SDS_P2;PMS_P1;PMS_P2;Temp;Humidity;BMP_temperature;BMP_pressure;BME280_temperature;BME280_humidity;BME280_pressure;Samples;Min_cycle;Max_cycle;Signal;HPM_P1;HPM_P2
2021/01/27 00:00:15;;;;;;;;;;;;;;;20.74;46.23;101067.03;2044477;28;3920;-72
2021/01/27 00:01:16;;;;;;;;;;;;;;;20.75;46.39;101067.84;2044302;29;3917;-72
2021/01/27 00:02:16;;;;;;;;;;;;;;;20.74;46.34;101063.38;2043393;29;3937;-73
2021/01/27 00:03:17;;;;;;;;;;;;;;;20.75;46.42;101065.00;2044083;28;3908;-79
2021/01/27 00:04:18;;;;;;;;;;;;;;;20.74;46.39;101069.06;2044622;29;4029;-75
2021/01/27 00:05:20;;;;;;;;;;;;;;;20.74;46.24;101067.03;2043511;29;3919;-74
2021/01/27 00:06:21;;;;;;;;;;;;;;;20.74;46.39;101066.22;2044475;29;3828;-76
2021/01/27 00:07:22;;;;;;;;;;;;;;;20.74;46.29;101061.34;2043946;29;3793;-81
2021/01/27 00:08:25;;;;;;;;;;;;;;;20.73;46.41;101061.69;2043367;29;5175;-79
2021/01/27 00:09:26;;;;;;;;;;;;;;;20.73;46.40;101064.53;2044831;29;3893;-73
2021/01/27 00:10:27;;;;;;;;;;;;;;;20.73;46.29;101064.53;2043028;29;3851;-74
2021/01/27 00:11:27;;;;;;;;;;;;;;;20.72;46.38;101060.84;2044589;29;3932;-74
2021/01/27 00:12:29;;;;;;;;;;;;;;;20.72;46.39;101063.69;2042617;29;3939;-75
2021/01/27 00:13:29;;;;;;;;;;;;;;;20.73;46.39;101067.38;2044854;29;5053;-76
2021/01/27 00:14:30;;;;;;;;;;;;;;;20.72;46.35;101063.69;2043089;29;3767;-75
2021/01/27 00:15:31;;;;;;;;;;;;;;;20.72;46.33;101062.88;2041874;29;3886;-76
2021/01/27 00:16:32;;;;;;;;;;;;;;;20.71;46.28;101064.88;2044433;29;4096;-76
2021/01/27 00:17:32;;;;;;;;;;;;;;;20.70;46.32;101057.50;2044468;29;4105;-74
2021/01/27 00:18:33;;;;;;;;;;;;;;;20.71;46.27;101055.53;2043081;28;3745;-74
2021/01/27 00:19:34;;;;;;;;;;;;;;;20.69;46.30;101059.53;2044684;29;4036;-75
2021/01/27 00:20:35;;;;;;;;;;;;;;;20.71;46.42;101056.34;2043368;29;3801;-74
2021/01/27 00:21:36;;;;;;;;;;;;;;;20.70;46.39;101048.97;2044528;29;4082;-73
2021/01/27 00:22:37;;;;;;;;;;;;;;;20.70;46.38;101048.97;2041912;28;3811;-73
2021/01/27 00:23:37;;;;;;;;;;;;;;;20.70;46.36;101051.81;2044442;29;4250;-73
2021/01/27 00:24:38;;;;;;;;;;;;;;;20.71;46.38;101055.53;2044432;29;3836;-73
2021/01/27 00:25:39;;;;;;;;;;;;;;;20.70;46.29;101057.50;2043306;29;3743;-73
2021/01/27 00:26:39;;;;;;;;;;;;;;;20.70;46.41;101048.97;2042066;29;3763;-73
2021/01/27 00:27:40;;;;;;;;;;;;;;;20.68;46.37;101052.19;2043243;29;3836;-73
2021/01/27 00:28:41;;;;;;;;;;;;;;;20.70;46.30;101054.66;2042246;29;4071;-73
2021/01/27 00:29:42;;;;;;;;;;;;;;;20.69;46.34;101053.03;2043999;29;3939;-74
2021/01/27 00:30:43;;;;;;;;;;;;;;;20.69;46.27;101051.00;2043837;29;3739;-73
2021/01/27 00:31:44;;;;;;;;;;;;;;;20.71;46.25;101058.38;2044329;29;3766;-76
2021/01/27 00:32:46;;;;;;;;;;;;;;;20.70;46.41;101060.34;2042299;29;3983;-77
2021/01/27 00:33:46;;;;;;;;;;;;;;;20.69;46.27;101050.19;2044003;29;4829;-88
2021/01/27 00:34:47;;;;;;;;;;;;;;;20.69;46.42;101053.03;2042652;29;3991;-77
2021/01/27 00:35:48;;;;;;;;;;;;;;;20.69;46.42;101047.34;2041453;29;3746;-77
2021/01/27 00:36:49;;;;;;;;;;;;;;;20.69;46.28;101051.00;2044086;29;4368;-77
2021/01/27 00:37:50;;;;;;;;;;;;;;;20.69;46.23;101053.03;2042919;29;3991;-78
2021/01/27 00:38:50;;;;;;;;;;;;;;;20.69;46.41;101048.16;2045412;29;3993;-77
2021/01/27 00:39:51;;;;;;;;;;;;;;;20.69;46.30;101053.03;2046270;29;3913;-75
2021/01/27 00:40:52;;;;;;;;;;;;;;;20.69;46.24;101047.34;2044783;29;3896;-74
2021/01/27 00:41:53;;;;;;;;;;;;;;;20.69;46.35;101053.84;2044431;29;3963;-74
2021/01/27 00:42:54;;;;;;;;;;;;;;;20.68;46.36;101051.38;2044580;29;3641;-73
2021/01/27 00:43:54;;;;;;;;;;;;;;;20.69;46.30;101050.19;2045704;29;3914;-73
2021/01/27 00:44:55;;;;;;;;;;;;;;;20.68;46.39;101046.50;2044191;29;4056;-73
2021/01/27 00:46:01;;;;;;;;;;;;;;;20.68;46.30;101052.19;2046041;29;3881;-73
2021/01/27 00:47:02;;;;;;;;;;;;;;;20.68;46.39;101046.50;2044634;29;3995;-76
2021/01/27 00:48:03;;;;;;;;;;;;;;;20.69;46.28;101048.16;2043614;29;4043;-76
2021/01/27 00:49:04;;;;;;;;;;;;;;;20.68;46.44;101051.38;2044492;28;3817;-76
2021/01/27 00:50:04;;;;;;;;;;;;;;;20.68;46.38;101051.38;2045134;29;3925;-74
2021/01/27 00:51:05;;;;;;;;;;;;;;;20.68;46.38;101046.50;2045202;28;3987;-75
2021/01/27 00:52:06;;;;;;;;;;;;;;;20.67;46.34;101053.34;2045377;29;3899;-77
2021/01/27 00:53:07;;;;;;;;;;;;;;;20.68;46.42;101051.38;2044775;29;4306;-77
2021/01/27 00:54:07;;;;;;;;;;;;;;;20.67;46.45;101044.00;2045213;29;3890;-76
2021/01/27 00:55:09;;;;;;;;;;;;;;;20.67;46.41;101052.53;2042251;29;4002;-74
2021/01/27 00:56:09;;;;;;;;;;;;;;;20.66;46.48;101053.72;2045962;29;3807;-74
2021/01/27 00:57:10;;;;;;;;;;;;;;;20.64;46.32;101050.38;2045866;29;4012;-74
2021/01/27 00:58:11;;;;;;;;;;;;;;;20.67;46.50;101053.34;2044077;29;3770;-76
2021/01/27 00:59:15;;;;;;;;;;;;;;;20.67;46.36;101047.66;2045603;29;4017;-76
2021/01/27 01:00:16;;;;;;;;;;;;;;;20.66;46.43;101042.34;2045444;29;4156;-76
2021/01/27 01:01:17;;;;;;;;;;;;;;;20.67;46.45;101049.69;2045658;29;3755;-78
2021/01/27 01:02:18;;;;;;;;;;;;;;;20.68;46.45;101048.53;2045059;29;3950;-79
2021/01/27 01:03:19;;;;;;;;;;;;;;;20.66;46.43;101048.03;2044919;28;3841;-78
2021/01/27 01:04:19;;;;;;;;;;;;;;;20.66;46.33;101050.88;2045227;29;4030;-79
2021/01/27 01:05:21;;;;;;;;;;;;;;;20.66;46.46;101056.56;2043124;29;3776;-78
2021/01/27 01:06:22;;;;;;;;;;;;;;;20.67;46.33;101049.69;2044812;29;3880;-78
2021/01/27 01:07:23;;;;;;;;;;;;;;;20.66;46.32;101053.72;2046094;29;3826;-79
2021/01/27 01:08:23;;;;;;;;;;;;;;;20.66;46.44;101053.72;2043140;29;3784;-76
2021/01/27 01:09:27;;;;;;;;;;;;;;;20.66;46.41;101050.88;2045245;28;3835;-76
2021/01/27 01:10:28;;;;;;;;;;;;;;;20.67;46.49;101061.06;2043961;29;3836;-76
2021/01/27 01:11:29;;;;;;;;;;;;;;;20.65;46.32;101047.19;2045236;29;3828;-76
2021/01/27 01:12:30;;;;;;;;;;;;;;;20.65;46.35;101052.88;2044752;29;3886;-76
2021/01/27 01:13:30;;;;;;;;;;;;;;;20.66;46.40;101048.03;2044008;28;4019;-76
2021/01/27 01:14:31;;;;;;;;;;;;;;;20.66;46.44;101054.53;2044979;28;3793;-78
2021/01/27 01:15:32;;;;;;;;;;;;;;;20.66;46.39;101053.72;2043959;29;3921;-76
2021/01/27 01:16:33;;;;;;;;;;;;;;;20.66;46.38;101054.53;2044407;28;3912;-76
2021/01/27 01:17:34;;;;;;;;;;;;;;;20.67;46.36;101049.69;2045480;29;3873;-76
2021/01/27 01:18:34;;;;;;;;;;;;;;;20.66;46.51;101053.72;2044104;29;3811;-76
2021/01/27 01:19:35;;;;;;;;;;;;;;;20.65;46.47;101049.22;2045748;29;4053;-76
2021/01/27 01:20:36;;;;;;;;;;;;;;;20.66;46.40;101050.88;2045173;29;3804;-76
2021/01/27 01:21:37;;;;;;;;;;;;;;;20.66;46.37;101050.88;2044002;29;3909;-76
2021/01/27 01:22:37;;;;;;;;;;;;;;;20.66;46.36;101053.72;2044616;29;3980;-76
2021/01/27 01:23:38;;;;;;;;;;;;;;;20.65;46.50;101050.03;2045432;29;4373;-76
2021/01/27 01:24:39;;;;;;;;;;;;;;;20.66;46.37;101048.84;2045732;28;3724;-76
2021/01/27 01:25:40;;;;;;;;;;;;;;;20.66;46.34;101048.03;2043504;29;3881;-75
2021/01/27 01:26:41;;;;;;;;;;;;;;;20.66;46.41;101053.72;2044737;29;3947;-75
2021/01/27 01:27:41;;;;;;;;;;;;;;;20.65;46.48;101047.19;2044180;28;3867;-75
2021/01/27 01:28:43;;;;;;;;;;;;;;;20.65;46.43;101049.22;2045130;28;3809;-76
2021/01/27 01:29:44;;;;;;;;;;;;;;;20.66;46.49;101056.56;2042758;29;3946;-76
2021/01/27 01:30:44;;;;;;;;;;;;;;;20.65;46.44;101046.38;2045847;28;3823;-75
2021/01/27 01:31:45;;;;;;;;;;;;;;;20.65;46.38;101041.50;2045399;29;3745;-75
2021/01/27 01:32:46;;;;;;;;;;;;;;;20.65;46.57;101041.50;2044016;29;4299;-75
2021/01/27 01:33:47;;;;;;;;;;;;;;;20.65;46.63;101035.81;2044956;29;3900;-75
2021/01/27 01:34:48;;;;;;;;;;;;;;;20.65;46.47;101043.53;2042826;29;3807;-75
2021/01/27 01:35:49;;;;;;;;;;;;;;;20.64;46.55;101042.66;2045408;29;3829;-75
2021/01/27 01:36:50;;;;;;;;;;;;;;;20.65;46.54;101035.00;2045982;29;3829;-76
2021/01/27 01:37:50;;;;;;;;;;;;;;;20.64;46.60;101039.81;2044970;29;3916;-76
2021/01/27 01:38:51;;;;;;;;;;;;;;;20.64;46.56;101037.00;2036707;29;3817;-76
2021/01/27 01:39:52;;;;;;;;;;;;;;;20.65;46.34;101037.84;2038084;29;3819;-76
2021/01/27 01:40:54;;;;;;;;;;;;;;;20.64;46.50;101039.00;2045464;29;3722;-76
2021/01/27 01:41:55;;;;;;;;;;;;;;;20.64;46.64;101041.84;2036250;29;3841;-75
2021/01/27 01:42:56;;;;;;;;;;;;;;;20.64;46.58;101041.84;2036488;29;3884;-76
2021/01/27 01:43:56;;;;;;;;;;;;;;;20.63;46.58;101043.03;2043857;28;3814;-74
2021/01/27 01:44:58;;;;;;;;;;;;;;;20.63;46.55;101043.84;2044173;28;3880;-75
2021/01/27 01:45:59;;;;;;;;;;;;;;;20.63;46.56;101043.84;2044572;29;3951;-74
2021/01/27 01:47:00;;;;;;;;;;;;;;;20.63;46.57;101037.34;2044968;29;3966;-77
2021/01/27 01:48:00;;;;;;;;;;;;;;;20.63;46.61;101037.34;2044978;28;3921;-77
2021/01/27 01:49:01;;;;;;;;;;;;;;;20.63;46.61;101032.50;2043917;28;3893;-78
2021/01/27 01:50:02;;;;;;;;;;;;;;;20.64;46.64;101039.81;2044146;29;4033;-78
2021/01/27 01:51:03;;;;;;;;;;;;;;;20.64;46.68;101041.84;2045531;29;4271;-77
2021/01/27 01:52:03;;;;;;;;;;;;;;;20.63;46.63;101034.50;2045682;29;4099;-78
2021/01/27 01:53:04;;;;;;;;;;;;;;;20.63;46.68;101040.19;2045027;29;4046;-78
2021/01/27 01:54:05;;;;;;;;;;;;;;;20.63;46.54;101037.34;2042551;29;3945;-75
2021/01/27 01:55:06;;;;;;;;;;;;;;;20.63;46.67;101031.66;2044226;29;3902;-75
2021/01/27 01:56:06;;;;;;;;;;;;;;;20.63;46.63;101040.19;2045240;29;4026;-73
2021/01/27 01:57:07;;;;;;;;;;;;;;;20.63;46.65;101040.19;2045205;28;3793;-73
2021/01/27 01:58:08;;;;;;;;;;;;;;;20.63;46.70;101040.19;2044459;28;3865;-73
2021/01/27 01:59:09;;;;;;;;;;;;;;;20.63;46.70;101028.81;2042947;29;3904;-74
2021/01/27 02:00:09;;;;;;;;;;;;;;;20.62;46.64;101033.69;2043902;29;3906;-73
2021/01/27 02:01:10;;;;;;;;;;;;;;;20.62;46.59;101039.38;2045309;29;3801;-73
2021/01/27 02:02:11;;;;;;;;;;;;;;;20.62;46.52;101032.81;2044769;29;3783;-73
2021/01/27 02:03:12;;;;;;;;;;;;;;;20.61;46.58;101029.16;2045196;28;4040;-75
2021/01/27 02:04:13;;;;;;;;;;;;;;;20.62;46.65;101035.66;2042886;29;4082;-75
2021/01/27 02:05:13;;;;;;;;;;;;;;;20.62;46.71;101030.84;2044369;29;4208;-73
2021/01/27 02:06:14;;;;;;;;;;;;;;;20.62;46.69;101033.69;2045107;28;3909;-73
2021/01/27 02:07:15;;;;;;;;;;;;;;;20.62;46.69;101035.66;2045054;29;3868;-73
2021/01/27 02:08:16;;;;;;;;;;;;;;;20.62;46.64;101035.66;2043578;29;3997;-73
2021/01/27 02:09:16;;;;;;;;;;;;;;;20.62;46.64;101030.84;2043176;28;4008;-73
2021/01/27 02:10:17;;;;;;;;;;;;;;;20.62;46.69;101032.81;2045251;28;4008;-73
2021/01/27 02:11:20;;;;;;;;;;;;;;;20.62;46.65;101033.69;2044455;29;3893;-73
2021/01/27 02:12:21;;;;;;;;;;;;;;;20.61;46.74;101034.84;2044080;29;3935;-73
2021/01/27 02:13:22;;;;;;;;;;;;;;;20.62;46.87;101030.84;2045250;28;3748;-74
2021/01/27 02:14:23;;;;;;;;;;;;;;;20.62;46.73;101027.13;2043928;29;3975;-73
2021/01/27 02:15:24;;;;;;;;;;;;;;;20.61;46.83;101028.31;2043360;29;3936;-75
2021/01/27 02:16:25;;;;;;;;;;;;;;;20.62;46.91;101029.97;2045075;29;3838;-76
2021/01/27 02:19:10;;;;;;;;;;;;;;;20.62;46.95;101029.97;2042821;29;3864;-76
2021/01/27 02:20:11;;;;;;;;;;;;;;;20.62;46.83;101029.97;2043049;29;3816;-75
2021/01/27 02:21:12;;;;;;;;;;;;;;;20.61;47.04;101023.47;2045431;28;3848;-75
2021/01/27 02:22:13;;;;;;;;;;;;;;;20.62;46.74;101029.97;2044697;28;4188;-76
2021/01/27 02:23:13;;;;;;;;;;;;;;;20.62;46.92;101024.28;2043729;29;3944;-74
2021/01/27 02:24:14;;;;;;;;;;;;;;;20.61;47.01;101026.31;2045558;28;3861;-73
2021/01/27 02:25:15;;;;;;;;;;;;;;;20.62;46.85;101028.00;2043066;29;4798;-73
2021/01/27 02:26:16;;;;;;;;;;;;;;;20.62;46.80;101030.84;2043758;29;4013;-74
2021/01/27 02:27:16;;;;;;;;;;;;;;;20.62;46.86;101029.97;2041910;29;4094;-73
2021/01/27 02:28:17;;;;;;;;;;;;;;;20.61;46.98;101029.16;2041979;28;3905;-73
2021/01/27 02:29:19;;;;;;;;;;;;;;;20.62;46.92;101035.66;2042585;29;4161;-74
2021/01/27 02:30:20;;;;;;;;;;;;;;;20.62;47.10;101036.53;2041678;29;4029;-73
2021/01/27 02:31:21;;;;;;;;;;;;;;;20.62;47.09;101032.81;2041475;29;3848;-73
2021/01/27 02:32:22;;;;;;;;;;;;;;;20.61;46.87;101036.84;2044715;28;3793;-74
2021/01/27 02:33:23;;;;;;;;;;;;;;;20.60;47.05;101027.50;2044589;29;3860;-75
2021/01/27 02:34:24;;;;;;;;;;;;;;;20.60;46.97;101029.50;2044978;29;3856;-75
2021/01/27 02:35:25;;;;;;;;;;;;;;;20.61;47.11;101034.00;2043683;29;3877;-72
2021/01/27 02:36:26;;;;;;;;;;;;;;;20.60;47.00;101030.34;2043745;29;4050;-74
2021/01/27 02:37:26;;;;;;;;;;;;;;;20.61;47.08;101034.00;2044795;29;3864;-73
2021/01/27 02:38:27;;;;;;;;;;;;;;;20.61;47.15;101034.00;2044270;29;3949;-73
2021/01/27 02:39:29;;;;;;;;;;;;;;;20.61;47.19;101036.84;2042260;29;4099;-73
2021/01/27 02:40:29;;;;;;;;;;;;;;;20.61;47.00;101034.00;2044430;29;3837;-72
2021/01/27 02:41:30;;;;;;;;;;;;;;;20.61;47.03;101039.69;2044746;29;3849;-75
2021/01/27 02:42:33;;;;;;;;;;;;;;;20.61;47.13;101034.00;2043732;28;3871;-74
2021/01/27 02:43:33;;;;;;;;;;;;;;;20.60;47.07;101035.19;2045067;29;3915;-74
2021/01/27 02:44:34;;;;;;;;;;;;;;;20.60;46.98;101036.03;2043159;29;4029;-74
2021/01/27 02:45:35;;;;;;;;;;;;;;;20.60;47.13;101029.50;2043386;29;3890;-74
2021/01/27 02:46:36;;;;;;;;;;;;;;;20.60;47.08;101041.72;2044095;28;3923;-74
2021/01/27 02:47:37;;;;;;;;;;;;;;;20.60;46.99;101040.88;2044299;29;4033;-75
2021/01/27 02:48:37;;;;;;;;;;;;;;;20.59;47.13;101031.53;2044817;29;3928;-75
2021/01/27 02:49:38;;;;;;;;;;;;;;;20.60;47.07;101038.88;2042255;29;4089;-74
2021/01/27 02:50:39;;;;;;;;;;;;;;;20.60;47.10;101035.19;2044147;29;3784;-75
2021/01/27 02:51:40;;;;;;;;;;;;;;;20.60;47.00;101035.19;2045181;29;3840;-75
2021/01/27 02:52:41;;;;;;;;;;;;;;;20.60;47.13;101032.34;2044376;29;3958;-74
2021/01/27 02:53:42;;;;;;;;;;;;;;;20.60;47.20;101029.50;2044308;29;4238;-74
2021/01/27 02:54:43;;;;;;;;;;;;;;;20.60;47.22;101026.69;2043366;29;3829;-74
2021/01/27 02:55:43;;;;;;;;;;;;;;;20.60;47.10;101026.69;2043422;29;3769;-74
2021/01/27 02:56:44;;;;;;;;;;;;;;;20.59;47.18;101030.69;2044811;29;3853;-75
2021/01/27 02:57:45;;;;;;;;;;;;;;;20.59;47.17;101025.84;2042196;29;3949;-75
2021/01/27 02:58:45;;;;;;;;;;;;;;;20.60;47.10;101035.19;2044673;28;3871;-73
2021/01/27 02:59:47;;;;;;;;;;;;;;;20.59;47.16;101030.69;2043456;29;3950;-73
2021/01/27 03:00:48;;;;;;;;;;;;;;;20.59;47.10;101022.16;2042997;28;3961;-73
2021/01/27 03:01:48;;;;;;;;;;;;;;;20.60;47.15;101029.50;2044254;29;3878;-72
2021/01/27 03:02:49;;;;;;;;;;;;;;;20.59;47.14;101017.31;2043006;29;3790;-73
2021/01/27 03:03:50;;;;;;;;;;;;;;;20.60;47.25;101021.00;2044646;29;4013;-73
2021/01/27 03:04:51;;;;;;;;;;;;;;;20.59;47.33;101019.31;2043468;29;3979;-73
2021/01/27 03:05:52;;;;;;;;;;;;;;;20.59;47.31;101010.78;2042902;29;4141;-73
2021/01/27 03:06:53;;;;;;;;;;;;;;;20.59;47.15;101020.16;2044604;29;3787;-72
2021/01/27 03:07:53;;;;;;;;;;;;;;;20.59;47.15;101023.00;2042796;29;3852;-77
2021/01/27 03:08:54;;;;;;;;;;;;;;;20.59;47.29;101028.69;2042897;29;3916;-75
2021/01/27 03:09:55;;;;;;;;;;;;;;;20.59;47.18;101028.69;2043520;29;4364;-76
2021/01/27 03:10:55;;;;;;;;;;;;;;;20.60;47.30;101030.34;2044302;29;3823;-76
2021/01/27 03:11:56;;;;;;;;;;;;;;;20.59;47.27;101020.16;2044419;28;3767;-76
2021/01/27 03:12:57;;;;;;;;;;;;;;;20.59;47.31;101019.31;2043064;29;3888;-76
2021/01/27 03:13:58;;;;;;;;;;;;;;;20.59;47.20;101022.16;2044285;29;3908;-74
2021/01/27 03:14:59;;;;;;;;;;;;;;;20.59;47.27;101023.00;2043361;29;4976;-73
2021/01/27 03:15:59;;;;;;;;;;;;;;;20.59;47.21;101022.16;2043602;29;3944;-73
2021/01/27 03:17:00;;;;;;;;;;;;;;;20.59;47.39;101020.16;2043881;28;3858;-73
2021/01/27 03:18:01;;;;;;;;;;;;;;;;;;2044026;29;3857;-74
2021/01/27 03:19:02;;;;;;;;;;;;;;;20.59;47.39;101017.31;2044385;29;3747;-73
2021/01/27 03:20:03;;;;;;;;;;;;;;;20.58;47.36;101023.34;2043461;29;3995;-75
2021/01/27 03:21:04;;;;;;;;;;;;;;;20.58;47.23;101018.47;2042495;28;4116;-73
2021/01/27 03:22:04;;;;;;;;;;;;;;;20.58;47.29;101018.47;2043840;29;4050;-73
2021/01/27 03:23:05;;;;;;;;;;;;;;;20.57;47.31;101016.00;2044305;29;3904;-73
2021/01/27 03:24:06;;;;;;;;;;;;;;;20.58;47.30;101021.31;2044699;28;3864;-73
2021/01/27 03:25:07;;;;;;;;;;;;;;;20.59;47.42;101022.16;2043031;28;3904;-72
2021/01/27 03:26:07;;;;;;;;;;;;;;;20.58;47.37;101017.66;2044079;29;3831;-73
2021/01/27 03:27:08;;;;;;;;;;;;;;;20.59;47.28;101025.00;2044265;29;4076;-73
2021/01/27 03:28:09;;;;;;;;;;;;;;;20.58;47.32;101026.19;2043518;29;3924;-72
2021/01/27 03:29:10;;;;;;;;;;;;;;;20.57;47.39;101018.84;2044477;29;3945;-73
2021/01/27 03:30:11;;;;;;;;;;;;;;;;;;2042844;29;3769;-74
2021/01/27 03:31:11;;;;;;;;;;;;;;;;;;2044706;29;3844;-74
2021/01/27 03:32:12;;;;;;;;;;;;;;;20.57;47.25;101021.69;2043665;29;3849;-73
2021/01/27 03:33:13;;;;;;;;;;;;;;;20.57;47.37;101018.84;2044006;29;4069;-73
2021/01/27 03:34:14;;;;;;;;;;;;;;;20.58;47.33;101023.34;2044284;29;3991;-74
2021/01/27 03:35:15;;;;;;;;;;;;;;;;;;2042784;29;3842;-73
2021/01/27 03:36:16;;;;;;;;;;;;;;;20.56;47.42;101020.81;2042793;29;3782;-74
2021/01/27 03:37:17;;;;;;;;;;;;;;;20.56;47.32;101017.97;2044329;28;3877;-73
2021/01/27 03:38:18;;;;;;;;;;;;;;;20.56;47.52;101023.66;2043325;29;3879;-76
2021/01/27 03:39:20;;;;;;;;;;;;;;;20.56;47.34;101015.13;2044057;29;4078;-75
2021/01/27 03:40:21;;;;;;;;;;;;;;;20.57;47.34;101018.84;2041220;29;4021;-75
2021/01/27 03:41:22;;;;;;;;;;;;;;;20.56;47.37;101020.81;2041352;29;3780;-75
2021/01/27 03:42:23;;;;;;;;;;;;;;;20.57;47.33;101021.69;2043401;29;3893;-75
2021/01/27 03:43:24;;;;;;;;;;;;;;;20.56;47.50;101025.69;2043724;29;3869;-75
2021/01/27 03:44:24;;;;;;;;;;;;;;;20.55;47.47;101021.19;2043685;29;3816;-75
2021/01/27 03:45:25;;;;;;;;;;;;;;;20.56;47.55;101025.69;2042893;29;3934;-75
2021/01/27 03:46:26;;;;;;;;;;;;;;;20.55;47.43;101022.00;2043168;28;3865;-75
2021/01/27 03:47:27;;;;;;;;;;;;;;;20.56;47.45;101014.31;2043116;29;4014;-74
2021/01/27 03:48:28;;;;;;;;;;;;;;;20.57;47.40;101021.69;2044033;29;4046;-75
2021/01/27 03:49:29;;;;;;;;;;;;;;;20.56;47.60;101026.50;2041089;29;3810;-74
2021/01/27 03:50:30;;;;;;;;;;;;;;;20.56;47.57;101028.53;2035194;29;3843;-73
2021/01/27 03:51:31;;;;;;;;;;;;;;;20.56;47.40;101025.69;2033397;29;3988;-74
2021/01/27 03:52:32;;;;;;;;;;;;;;;20.57;47.57;101024.53;2043637;28;3853;-73
2021/01/27 03:53:33;;;;;;;;;;;;;;;20.57;47.38;101024.53;2044115;29;3836;-74
2021/01/27 03:54:34;;;;;;;;;;;;;;;20.56;47.57;101023.66;2043076;29;3803;-73
2021/01/27 03:55:34;;;;;;;;;;;;;;;20.56;47.44;101023.66;2043320;29;5049;-74
2021/01/27 03:56:35;;;;;;;;;;;;;;;20.57;47.44;101016.00;2043131;29;3869;-74
2021/01/27 03:57:36;;;;;;;;;;;;;;;20.56;47.40;101025.69;2036497;29;3860;-74
2021/01/27 03:58:37;;;;;;;;;;;;;;;20.56;47.46;101020.81;2036482;29;3750;-74
2021/01/27 03:59:37;;;;;;;;;;;;;;;;;;2041482;29;3950;-75
2021/01/27 04:00:38;;;;;;;;;;;;;;;20.55;47.49;101030.53;2044365;29;3984;-74
2021/01/27 04:01:39;;;;;;;;;;;;;;;20.56;47.41;101022.84;2043878;29;3848;-75
2021/01/27 04:02:40;;;;;;;;;;;;;;;20.55;47.43;101026.88;2044024;29;3793;-75
2021/01/27 04:03:41;;;;;;;;;;;;;;;20.55;47.58;101024.84;2042770;29;3889;-75
2021/01/27 04:04:42;;;;;;;;;;;;;;;20.56;47.57;101025.69;2042381;29;3768;-76
2021/01/27 04:05:43;;;;;;;;;;;;;;;20.56;47.61;101020.00;2042355;29;3814;-76
2021/01/27 04:06:44;;;;;;;;;;;;;;;20.56;47.37;101014.31;2043110;29;3928;-75
2021/01/27 04:07:44;;;;;;;;;;;;;;;20.56;47.59;101017.97;2044024;29;3894;-75
2021/01/27 04:08:45;;;;;;;;;;;;;;;20.56;47.54;101020.00;2043367;29;3916;-76
2021/01/27 04:09:46;;;;;;;;;;;;;;;20.56;47.57;101025.69;2040415;29;3814;-76
2021/01/27 04:10:47;;;;;;;;;;;;;;;20.57;47.44;101021.69;2043561;29;3917;-75
2021/01/27 04:11:47;;;;;;;;;;;;;;;20.56;47.60;101017.16;2044276;28;4005;-76
2021/01/27 04:12:48;;;;;;;;;;;;;;;20.56;47.60;101025.69;2043878;29;3877;-76
2021/01/27 04:13:49;;;;;;;;;;;;;;;20.56;47.51;101023.66;2044006;29;3826;-76
2021/01/27 04:14:50;;;;;;;;;;;;;;;20.56;47.40;101029.34;2042370;29;3855;-75
2021/01/27 04:15:50;;;;;;;;;;;;;;;20.56;47.51;101028.53;2043639;29;4006;-76
2021/01/27 04:16:51;;;;;;;;;;;;;;;20.55;47.47;101030.53;2043909;29;3851;-76
2021/01/27 04:17:52;;;;;;;;;;;;;;;20.55;47.43;101024.84;2042940;29;3834;-76
2021/01/27 04:18:53;;;;;;;;;;;;;;;20.56;47.57;101022.84;2043881;29;3717;-76
2021/01/27 04:19:54;;;;;;;;;;;;;;;20.56;47.61;101026.50;2042454;29;3929;-76
2021/01/27 04:20:54;;;;;;;;;;;;;;;20.54;47.58;101020.38;2043975;28;4324;-75
2021/01/27 04:21:55;;;;;;;;;;;;;;;20.55;47.47;101018.34;2043315;28;3829;-76
2021/01/27 04:22:56;;;;;;;;;;;;;;;20.55;47.53;101016.34;2043838;29;3827;-76
2021/01/27 04:23:57;;;;;;;;;;;;;;;20.55;47.49;101021.19;2044100;28;4009;-76
2021/01/27 04:24:57;;;;;;;;;;;;;;;20.55;47.49;101015.50;2042343;29;4311;-76
2021/01/27 04:25:58;;;;;;;;;;;;;;;20.55;47.47;101015.50;2043535;28;3827;-76
2021/01/27 04:26:59;;;;;;;;;;;;;;;20.55;47.62;101018.34;2041401;29;4081;-76
2021/01/27 04:28:00;;;;;;;;;;;;;;;20.55;47.51;101018.34;2042525;29;3777;-76
2021/01/27 04:29:01;;;;;;;;;;;;;;;20.55;47.79;101009.81;2043988;29;3880;-76
2021/01/27 04:30:01;;;;;;;;;;;;;;;20.54;47.61;101014.69;2027201;29;3835;-76
2021/01/27 04:31:02;;;;;;;;;;;;;;;20.54;47.47;101014.69;2027435;29;3769;-75
2021/01/27 04:32:03;;;;;;;;;;;;;;;20.55;47.46;101018.34;2040886;29;4054;-75
2021/01/27 04:33:05;;;;;;;;;;;;;;;20.54;47.58;101017.53;2042745;29;4054;-76
2021/01/27 04:34:06;;;;;;;;;;;;;;;20.55;47.62;101007.81;2039118;29;3785;-76
2021/01/27 04:35:06;;;;;;;;;;;;;;;20.55;47.66;101006.97;2043576;29;3793;-76
2021/01/27 04:36:07;;;;;;;;;;;;;;;20.54;47.60;101014.69;2043180;29;4225;-75
2021/01/27 04:37:08;;;;;;;;;;;;;;;20.55;47.64;101010.66;2042808;29;4377;-75
2021/01/27 04:38:09;;;;;;;;;;;;;;;20.54;47.46;101013.81;2043490;29;4043;-75
2021/01/27 04:39:10;;;;;;;;;;;;;;;20.53;47.58;100998.78;2042405;28;3861;-75
2021/01/27 04:40:10;;;;;;;;;;;;;;;20.54;47.50;101010.97;2043282;29;3894;-75
2021/01/27 04:41:11;;;;;;;;;;;;;;;20.53;47.63;101006.44;2043606;29;3824;-75
2021/01/27 04:42:12;;;;;;;;;;;;;;;20.53;47.66;101006.44;2043872;29;4272;-75
2021/01/27 04:43:13;;;;;;;;;;;;;;;20.51;47.50;101003.09;2044354;29;3897;-75
2021/01/27 04:44:13;;;;;;;;;;;;;;;20.54;47.66;101005.28;2044355;29;5244;-75
2021/01/27 04:45:14;;;;;;;;;;;;;;;20.53;47.51;101004.47;2043224;28;3925;-75
2021/01/27 04:46:15;;;;;;;;;;;;;;;20.54;47.48;100996.75;2043878;28;3757;-75
2021/01/27 04:47:16;;;;;;;;;;;;;;;20.54;47.54;100993.91;2043801;29;3808;-75
2021/01/27 04:48:18;;;;;;;;;;;;;;;20.54;47.61;100999.59;2043439;29;5199;-76
2021/01/27 04:49:18;;;;;;;;;;;;;;;20.53;47.63;100993.09;2043686;29;3802;-76
2021/01/27 04:50:20;;;;;;;;;;;;;;;20.52;47.57;100997.09;2043251;29;3949;-76
2021/01/27 04:51:21;;;;;;;;;;;;;;;20.53;47.62;100997.91;2034390;29;3922;-76
2021/01/27 04:52:22;;;;;;;;;;;;;;;20.53;47.53;100997.91;2035210;29;3845;-76
2021/01/27 04:53:23;;;;;;;;;;;;;;;20.52;47.44;100997.09;2043250;29;4045;-76
2021/01/27 04:54:24;;;;;;;;;;;;;;;20.53;47.62;100998.78;2043271;29;4396;-76
2021/01/27 04:55:24;;;;;;;;;;;;;;;20.53;47.50;100997.91;2044345;28;3847;-76
2021/01/27 04:56:25;;;;;;;;;;;;;;;20.54;47.53;100999.59;2043249;29;4059;-76
2021/01/27 04:57:26;;;;;;;;;;;;;;;20.53;47.64;100993.09;2042797;29;3994;-76
2021/01/27 04:58:27;;;;;;;;;;;;;;;20.53;47.64;100995.09;2043164;28;3886;-76
2021/01/27 04:59:28;;;;;;;;;;;;;;;20.53;47.48;100995.09;2043558;29;4228;-76
2021/01/27 05:00:29;;;;;;;;;;;;;;;20.52;47.59;101002.78;2043946;28;3911;-76
2021/01/27 05:01:30;;;;;;;;;;;;;;;20.53;47.56;101001.63;2042934;29;3872;-76
2021/01/27 05:02:32;;;;;;;;;;;;;;;20.53;47.62;100995.09;2043493;29;3782;-75
2021/01/27 05:03:32;;;;;;;;;;;;;;;20.52;47.50;100996.28;2044668;29;4125;-76
2021/01/27 05:04:33;;;;;;;;;;;;;;;20.53;47.60;100997.91;2043859;29;4011;-76
2021/01/27 05:05:34;;;;;;;;;;;;;;;20.52;47.44;101001.94;2043556;29;4333;-76
2021/01/27 05:06:35;;;;;;;;;;;;;;;20.52;47.62;100996.28;2044552;29;4001;-76
2021/01/27 05:07:35;;;;;;;;;;;;;;;20.52;47.64;100999.94;2043810;29;3850;-76
2021/01/27 05:08:36;;;;;;;;;;;;;;;20.53;47.52;100992.25;2043853;29;4398;-76
2021/01/27 05:09:37;;;;;;;;;;;;;;;20.52;47.58;100996.28;2043641;29;3876;-76
2021/01/27 05:10:37;;;;;;;;;;;;;;;20.52;47.60;100999.94;2044043;29;3836;-75
2021/01/27 05:11:38;;;;;;;;;;;;;;;20.53;47.49;101006.44;2043595;29;3876;-76
2021/01/27 05:12:39;;;;;;;;;;;;;;;20.52;47.57;101001.94;2043899;28;3844;-77
2021/01/27 05:13:40;;;;;;;;;;;;;;;20.52;47.46;101002.78;2043211;29;3864;-77
2021/01/27 05:14:41;;;;;;;;;;;;;;;20.52;47.55;100999.94;2044421;29;3969;-77
2021/01/27 05:15:41;;;;;;;;;;;;;;;20.52;47.58;101005.63;2044317;28;3967;-76
2021/01/27 05:16:42;;;;;;;;;;;;;;;20.52;47.75;101002.78;2035843;29;3836;-77
2021/01/27 05:17:43;;;;;;;;;;;;;;;20.53;47.58;101000.75;2035775;29;4229;-77
2021/01/27 05:18:44;;;;;;;;;;;;;;;20.52;47.44;100993.44;2044101;29;3833;-77
2021/01/27 05:19:44;;;;;;;;;;;;;;;20.50;47.49;100993.75;2044259;29;3865;-77